Flight Track Log - Related Links

Times and Time Zones

All times are in EDT time to prevent confusion due to time zone crossing. See the KAL1337 flight status page for this flight to view local times or setup timezone preferences in your user account.

Time Position Orientation Groundspeed Altitude Reporting Facility
EDT Latitude Longitude Course Direction KTS MPH feet Rate Location/Type
Thu 03:50:00 AM 37.2949 126.8731 166° South  Level Estimated
Thu 03:51:00 AM 37.2071 126.9005 166° South  Level Estimated
Thu 03:51:18 AM 37.5432 126.6150 165° South 288 331 9,200  Level FlightAware ADS-B (SBBH / PLU)
Thu 03:51:48 AM 37.4962 126.6284 167° South 291 335 10,700 3,626 Climbing FlightAware ADS-B (SBBH / PLU)
Thu 03:53:37 AM 37.3390 126.6676 171° South 321 369 17,600 3,580 Climbing FlightAware ADS-B (SBBH / PLU)
Thu 03:53:47 AM 37.3259 126.6678 187° South 318 366 17,800 1,200 Climbing FlightAware ADS-B (SBBH / PLU)
Thu 03:53:57 AM 37.3100 126.6631 201° Southwest 316 364 18,000 200 Climbing FlightAware ADS-B (SBBH / PLU)
Thu 03:54:47 AM 37.2520 126.6225 210° Southwest 314 361 18,000  Level FlightAware ADS-B (SBBH / PLU)
Thu 03:55:18 AM 37.2082 126.5908 211° Southwest 313 360 18,000 1,100 Level FlightAware ADS-B (SBBH / PLU)
Thu 03:55:47 AM 37.1707 126.5636 210° Southwest 316 364 19,100 2,069 Climbing FlightAware ADS-B (SBBH / PLU)
Thu 03:56:16 AM 37.1346 126.5379 210° Southwest 323 372 20,000 1,000 Climbing FlightAware ADS-B (SBBH / PLU)
Thu 03:56:41 AM 37.0999 126.5165 196° South 329 379 20,000  Level FlightAware ADS-B (SBBH / PLU)
Thu 03:56:53 AM 37.0827 126.5132 185° South 335 386 20,000  Level FlightAware ADS-B (SBBH / PLU)
Thu 03:57:03 AM 37.0698 126.5138 171° South 344 396 20,000  Level FlightAware ADS-B (SBBH / PLU)
Thu 03:59:00 AM 36.9009 126.5997 158° South  Level Estimated
Thu 04:00:00 AM 36.8142 126.6435 158° South  Level Estimated
Thu 04:01:00 AM 36.7276 126.6873 158° South  Level Estimated
Thu 04:02:00 AM 36.6409 126.7310 158° South  Level Estimated
Thu 04:03:00 AM 36.5542 126.7746 158° South  Level Estimated
Thu 04:04:00 AM 36.4674 126.8180 158° South  Level Estimated
Thu 04:05:00 AM 36.3807 126.8614 158° South  Level Estimated
Thu 04:06:00 AM 36.2940 126.9047 158° South  Level Estimated
Thu 04:07:00 AM 36.2072 126.9479 158° South  Level Estimated
Thu 04:08:00 AM 36.1204 126.9910 158° South  Level Estimated
Thu 04:09:00 AM 36.0336 127.0340 158° South  Level Estimated
Thu 04:10:00 AM 35.9468 127.0769 158° South  Level Estimated
Thu 04:11:00 AM 35.8600 127.1197 158° South  Level Estimated
Thu 04:12:00 AM 35.7732 127.1624 158° South  Level Estimated
Thu 04:13:00 AM 35.6863 127.2051 158° South  Level Estimated
Thu 04:14:00 AM 35.5994 127.2476 158° South  Level Estimated
Thu 04:15:00 AM 35.5126 127.2900 158° South  Level Estimated
Thu 04:16:00 AM 35.4257 127.3324 158° South  Level Estimated
Thu 04:17:00 AM 35.3387 127.3746 158° South  Level Estimated
Thu 04:18:00 AM 35.2518 127.4168 158° South  Level Estimated
Thu 04:19:00 AM 35.1649 127.4589 158° South  Level Estimated
Thu 04:20:00 AM 35.0779 127.5009 158° South  Level Estimated
Thu 04:21:00 AM 34.9909 127.5428 158° South  Level Estimated
Thu 04:22:00 AM 34.9039 127.5846 158° South  Level Estimated
Thu 04:23:00 AM 34.8398 127.6153 159° South  Level Estimated
Thu 04:24:00 AM 34.8398 127.6153 North  Level Estimated
Thu 04:25:00 AM 34.8398 127.6153 North  Level Estimated
Thu 04:26:00 AM 34.8398 127.6153 North  Level Estimated
Thu 04:27:00 AM 34.8398 127.6153 North  Level Estimated
Thu 04:28:00 AM 34.8398 127.6153 North  Level Estimated
Thu 04:29:00 AM 34.8398 127.6153 North  Level Estimated
Thu 04:30:00 AM 34.8398 127.6153 North  Level Estimated
Thu 04:31:00 AM 34.8398 127.6153 North  Level Estimated
Thu 04:32:00 AM 34.8398 127.6153 North  Level Estimated
Thu 04:33:00 AM 34.8398 127.6153 North  Level Estimated

Login

Don't have an account? Register now (free) for customized features, flight alerts, and more!